createdAt,value
2019-06-01T00:02:04.623Z,4.40
2019-06-01T00:04:54.194Z,5.97
2019-06-01T00:07:42.953Z,4.60
2019-06-01T00:10:32.018Z,4.53
2019-06-01T00:13:20.747Z,4.57
2019-06-01T00:16:09.743Z,4.67
2019-06-01T00:18:58.357Z,4.10
2019-06-01T00:21:47.456Z,4.10
2019-06-01T00:24:37.306Z,3.73
2019-06-01T00:27:25.589Z,4.47
2019-06-01T00:30:26.659Z,4.50
2019-06-01T00:33:04.798Z,3.80
2019-06-01T00:35:53.387Z,4.30
2019-06-01T00:38:43.877Z,4.83
2019-06-01T00:41:33.711Z,4.20
2019-06-01T00:44:22.216Z,3.90
2019-06-01T00:47:11.155Z,4.60
2019-06-01T00:49:59.763Z,4.40
2019-06-01T00:52:49.227Z,4.17
2019-06-01T00:55:37.430Z,4.10
2019-06-01T00:58:25.878Z,3.70
2019-06-01T01:01:14.666Z,4.20
2019-06-01T01:04:03.833Z,3.70
2019-06-01T01:06:54.777Z,4.50
2019-06-01T01:09:46.727Z,3.83
2019-06-01T01:12:37.105Z,4.23
2019-06-01T01:15:25.262Z,4.23
2019-06-01T01:18:14.030Z,4.30
2019-06-01T01:21:02.491Z,4.13
2019-06-01T01:23:50.709Z,5.10
2019-06-01T01:26:38.855Z,4.17
2019-06-01T01:29:27.890Z,4.37
2019-06-01T01:32:16.958Z,4.87
2019-06-01T01:35:06.280Z,4.27
2019-06-01T01:37:58.519Z,4.13
2019-06-01T01:40:47.959Z,3.80
2019-06-01T01:43:37.265Z,4.77
2019-06-01T01:46:26.754Z,3.90
2019-06-01T01:49:15.696Z,4.53
2019-06-01T01:52:03.890Z,4.60
2019-06-01T01:54:52.806Z,4.70
2019-06-01T01:57:40.902Z,4.10
2019-06-01T02:00:34.191Z,4.53
2019-06-01T02:03:23.145Z,4.23
2019-06-01T02:06:12.427Z,4.20
2019-06-01T02:09:01.937Z,4.50
2019-06-01T02:11:53.450Z,3.63
2019-06-01T02:14:42.622Z,4.60
2019-06-01T02:17:30.777Z,3.50
2019-06-01T02:20:19.714Z,4.07
2019-06-01T02:23:08.463Z,4.10
2019-06-01T02:25:56.960Z,3.97
2019-06-01T02:28:45.503Z,4.43
2019-06-01T02:31:41.559Z,4.20
2019-06-01T02:34:24.131Z,4.23
2019-06-01T02:37:13.457Z,4.27
2019-06-01T02:40:03.227Z,4.50
2019-06-01T02:42:52.615Z,4.23
2019-06-01T02:45:42.193Z,4.90
2019-06-01T02:48:31.831Z,3.77
2019-06-01T02:51:20.286Z,4.53
2019-06-01T02:54:09.514Z,4.60
2019-06-01T02:56:57.902Z,4.40
2019-06-01T02:59:46.185Z,5.50
2019-06-01T03:02:35.010Z,5.17
2019-06-01T03:05:25.095Z,4.77
2019-06-01T03:08:21.715Z,4.60
2019-06-01T03:11:11.711Z,4.80
2019-06-01T03:14:02.360Z,5.17
2019-06-01T03:16:52.092Z,5.27
2019-06-01T03:19:42.321Z,5.60
2019-06-01T03:22:32.462Z,4.77
2019-06-01T03:25:21.115Z,4.77
2019-06-01T03:28:10.767Z,4.20
2019-06-01T03:31:00.978Z,4.27
2019-06-01T03:33:49.735Z,4.57
2019-06-01T03:36:38.695Z,4.90
2019-06-01T03:39:28.245Z,6.27
2019-06-01T03:42:17.469Z,5.80
2019-06-01T03:45:14.390Z,4.70
2019-06-01T03:48:04.657Z,5.10
2019-06-01T03:50:53.635Z,5.47
2019-06-01T03:53:42.552Z,5.07
2019-06-01T03:56:31.414Z,4.93
2019-06-01T03:59:20.236Z,5.10
2019-06-01T04:02:11.128Z,5.30
2019-06-01T04:05:01.571Z,5.13
2019-06-01T04:07:51.828Z,4.57
2019-06-01T04:10:42.124Z,4.90
2019-06-01T04:13:30.286Z,4.80
2019-06-01T04:16:18.276Z,3.93
2019-06-01T04:19:07.941Z,5.30
2019-06-01T04:21:56.974Z,5.40
2019-06-01T04:24:45.706Z,5.57
2019-06-01T04:27:33.950Z,5.10
2019-06-01T04:30:25.306Z,4.60
2019-06-01T04:33:13.935Z,5.60
2019-06-01T04:36:03.357Z,4.57
2019-06-01T04:38:51.642Z,6.00
2019-06-01T04:41:40.775Z,5.90
2019-06-01T04:44:29.422Z,6.00
2019-06-01T04:47:18.351Z,4.50
2019-06-01T04:50:06.801Z,5.47
2019-06-01T04:52:56.722Z,5.30
2019-06-01T04:55:45.062Z,5.73
2019-06-01T04:58:33.289Z,5.20
2019-06-01T05:04:18.138Z,5.77
2019-06-01T05:07:07.233Z,5.50
2019-06-01T05:09:56.763Z,4.97
2019-06-01T05:12:45.379Z,5.50
2019-06-01T05:15:33.299Z,5.70
2019-06-01T05:18:21.682Z,5.53
2019-06-01T05:21:10.651Z,5.90
2019-06-01T05:23:59.595Z,5.93
2019-06-01T05:26:48.746Z,5.63
2019-06-01T05:29:37.300Z,5.63
2019-06-01T05:32:26.043Z,5.67
2019-06-01T05:35:15.828Z,6.50
2019-06-01T05:38:04.984Z,5.83
2019-06-01T05:40:54.014Z,5.60
2019-06-01T05:43:43.305Z,5.80
2019-06-01T05:46:32.107Z,5.20
2019-06-01T05:49:22.692Z,5.70
2019-06-01T05:52:12.326Z,5.90
2019-06-01T05:55:01.577Z,5.60
2019-06-01T05:57:50.213Z,5.87
2019-06-01T06:00:48.258Z,5.60
2019-06-01T06:03:40.381Z,5.30
2019-06-01T06:06:28.403Z,5.57
2019-06-01T06:09:17.551Z,6.60
2019-06-01T06:12:06.832Z,5.80
2019-06-01T06:14:55.496Z,5.03
2019-06-01T06:17:44.319Z,5.50
2019-06-01T06:20:32.631Z,6.30
2019-06-01T06:23:22.734Z,4.93
2019-06-01T06:26:15.479Z,5.40
2019-06-01T06:29:03.082Z,5.40
2019-06-01T06:31:50.980Z,5.80
2019-06-01T06:34:39.686Z,5.60
2019-06-01T06:37:28.590Z,5.13
2019-06-01T06:40:20.038Z,5.13
2019-06-01T06:43:19.275Z,5.10
2019-06-01T06:46:00.161Z,5.10
2019-06-01T06:48:49.746Z,4.60
2019-06-01T06:51:37.747Z,4.30
2019-06-01T06:54:26.820Z,5.43
2019-06-01T06:57:15.991Z,4.67
2019-06-01T07:00:20.621Z,4.30
2019-06-01T07:03:10.045Z,4.20
2019-06-01T07:06:00.161Z,4.33
2019-06-01T07:08:49.380Z,4.57
2019-06-01T07:11:38.914Z,4.03
2019-06-01T07:14:29.666Z,5.30
2019-06-01T07:17:19.388Z,4.20
2019-06-01T07:20:08.670Z,3.60
2019-06-01T07:22:57.634Z,3.93
2019-06-01T07:25:45.715Z,4.57
2019-06-01T07:28:34.717Z,3.40
2019-06-01T07:31:24.245Z,3.33
2019-06-01T07:34:27.093Z,3.67
2019-06-01T07:37:03.574Z,3.70
2019-06-01T07:39:53.069Z,3.20
2019-06-01T07:42:41.606Z,3.63
2019-06-01T07:45:33.557Z,3.37
2019-06-01T07:48:23.041Z,3.73
2019-06-01T07:51:11.559Z,2.90
2019-06-01T07:54:00.863Z,3.30
2019-06-01T07:56:49.598Z,2.70
2019-06-01T07:59:38.396Z,2.30
2019-06-01T08:02:29.447Z,2.63
2019-06-01T08:05:18.123Z,2.40
2019-06-01T08:08:07.908Z,2.77
2019-06-01T08:10:57.429Z,2.70
2019-06-01T08:13:45.910Z,2.40
2019-06-01T08:16:33.940Z,2.40
2019-06-01T08:19:23.765Z,2.63
2019-06-01T08:22:12.776Z,2.00
2019-06-01T08:25:01.196Z,2.30
2019-06-01T08:27:49.240Z,2.40
2019-06-01T08:30:38.001Z,2.90
2019-06-01T08:33:30.165Z,2.63
2019-06-01T08:36:17.530Z,2.43
2019-06-01T08:39:12.675Z,2.30
2019-06-01T08:42:02.209Z,2.37
2019-06-01T08:44:51.191Z,2.40
2019-06-01T08:47:39.329Z,2.50
2019-06-01T08:50:29.805Z,2.20
2019-06-01T08:53:18.218Z,2.77
2019-06-01T08:56:06.270Z,2.87
2019-06-01T08:58:54.482Z,2.93
2019-06-01T09:01:43.718Z,3.60
2019-06-01T09:04:32.838Z,2.63
2019-06-01T09:07:22.103Z,2.13
2019-06-01T09:10:12.044Z,1.70
2019-06-01T09:13:02.139Z,2.10
2019-06-01T09:15:50.637Z,2.20
2019-06-01T09:18:38.813Z,2.10
2019-06-01T09:21:27.530Z,1.93
2019-06-01T09:24:16.170Z,1.90
2019-06-01T09:27:05.503Z,1.73
2019-06-01T09:29:54.097Z,1.70
2019-06-01T09:32:42.263Z,1.50
2019-06-01T09:35:48.628Z,1.60
2019-06-01T09:38:21.710Z,1.70
2019-06-01T09:41:11.070Z,1.60
2019-06-01T09:44:00.031Z,1.63
2019-06-01T09:46:49.491Z,1.60
2019-06-01T09:49:38.063Z,1.67
2019-06-01T09:52:29.551Z,1.90
2019-06-01T09:55:18.140Z,2.07
2019-06-01T09:58:06.798Z,1.70
2019-06-01T10:00:56.223Z,1.57
2019-06-01T10:03:45.720Z,2.70
2019-06-01T10:06:35.129Z,3.63
2019-06-01T10:09:25.494Z,1.70
2019-06-01T10:12:15.014Z,2.13
2019-06-01T10:15:03.818Z,2.00
2019-06-01T10:17:52.697Z,1.63
2019-06-01T10:20:41.382Z,1.83
2019-06-01T10:23:30.160Z,1.97
2019-06-01T10:26:18.726Z,1.90
2019-06-01T10:29:08.647Z,1.70
2019-06-01T10:31:56.963Z,1.63
2019-06-01T10:34:45.262Z,1.97
2019-06-01T10:37:33.898Z,1.70
2019-06-01T10:40:23.577Z,2.10
2019-06-01T10:43:12.278Z,1.90
2019-06-01T10:46:02.082Z,1.70
2019-06-01T10:48:50.891Z,2.10
2019-06-01T10:51:40.366Z,14.10
2019-06-01T10:54:29.751Z,3.70
2019-06-01T10:57:18.036Z,2.40
2019-06-01T11:00:13.655Z,2.50
2019-06-01T11:03:02.564Z,2.37
2019-06-01T11:05:52.309Z,3.03
2019-06-01T11:08:41.355Z,2.40
2019-06-01T11:11:30.649Z,2.40
2019-06-01T11:14:18.801Z,2.20
2019-06-01T11:17:07.860Z,1.80
2019-06-01T11:19:56.219Z,2.10
2019-06-01T11:22:45.003Z,2.30
2019-06-01T11:25:33.626Z,2.50
2019-06-01T11:28:22.603Z,2.30
2019-06-01T11:31:11.920Z,2.47
2019-06-01T11:34:02.151Z,2.50
2019-06-01T11:37:04.629Z,2.30
2019-06-01T11:39:42.975Z,2.07
2019-06-01T11:42:31.341Z,2.37
2019-06-01T11:45:34.909Z,3.17
2019-06-01T11:48:24.700Z,2.80
2019-06-01T11:51:12.915Z,2.37
2019-06-01T11:54:02.283Z,2.00
2019-06-01T11:56:51.338Z,2.13
2019-06-01T11:59:39.491Z,2.50
2019-06-01T12:02:28.517Z,2.20
2019-06-01T12:05:17.262Z,2.20
2019-06-01T12:08:06.942Z,2.43
2019-06-01T12:10:56.000Z,2.53
2019-06-01T12:13:44.915Z,22.60
2019-06-01T12:16:33.542Z,7.93
2019-06-01T12:19:21.542Z,2.63
2019-06-01T12:22:10.271Z,3.20
2019-06-01T12:24:58.194Z,3.10
2019-06-01T12:27:48.227Z,2.30
2019-06-01T12:30:37.570Z,2.90
2019-06-01T12:33:25.686Z,2.07
2019-06-01T12:36:14.691Z,3.20
2019-06-01T12:39:02.854Z,2.10
2019-06-01T12:41:58.499Z,2.93
2019-06-01T12:44:48.105Z,2.43
2019-06-01T12:47:37.740Z,2.33
2019-06-01T12:50:26.555Z,1.90
2019-06-01T12:53:15.827Z,3.00
2019-06-01T12:56:03.830Z,5.67
2019-06-01T12:58:52.578Z,2.10
2019-06-01T13:01:43.113Z,2.30
2019-06-01T13:04:32.973Z,1.90
2019-06-01T13:07:22.461Z,2.10
2019-06-01T13:10:13.491Z,2.10
2019-06-01T13:13:01.489Z,2.37
2019-06-01T13:15:49.485Z,2.40
2019-06-01T13:18:38.278Z,10.10
2019-06-01T13:21:27.853Z,7.77
2019-06-01T13:24:16.599Z,5.10
2019-06-01T13:27:04.678Z,2.50
2019-06-01T13:29:52.946Z,2.60
2019-06-01T13:32:42.389Z,2.70
2019-06-01T13:35:31.018Z,2.60
2019-06-01T13:38:20.046Z,2.13
2019-06-01T13:41:09.248Z,2.03
2019-06-01T13:43:58.118Z,2.03
2019-06-01T13:46:58.839Z,2.10
2019-06-01T13:49:48.413Z,2.33
2019-06-01T13:52:38.354Z,2.07
2019-06-01T13:55:26.689Z,2.00
2019-06-01T13:58:15.050Z,2.63
2019-06-01T14:01:06.015Z,2.43
2019-06-01T14:06:49.427Z,2.10
2019-06-01T14:09:45.198Z,2.00
2019-06-01T14:12:33.589Z,2.00
2019-06-01T14:15:22.421Z,2.07
2019-06-01T14:18:12.170Z,2.30
2019-06-01T14:21:00.793Z,2.10
2019-06-01T14:23:50.123Z,2.10
2019-06-01T14:26:39.819Z,2.10
2019-06-01T14:29:28.410Z,2.40
2019-06-01T14:32:18.676Z,2.40
2019-06-01T14:35:07.300Z,2.03
2019-06-01T14:37:57.130Z,2.10
2019-06-01T14:40:47.078Z,2.20
2019-06-01T14:43:35.322Z,2.10
2019-06-01T14:46:24.866Z,2.47
2019-06-01T14:49:14.190Z,2.10
2019-06-01T14:52:02.847Z,2.17
2019-06-01T14:54:52.182Z,2.00
2019-06-01T14:57:40.417Z,2.20
2019-06-01T15:00:29.799Z,2.10
2019-06-01T15:03:19.575Z,2.13
2019-06-01T15:06:10.638Z,2.23
2019-06-01T15:09:15.615Z,2.80
2019-06-01T15:11:52.426Z,2.50
2019-06-01T15:14:42.247Z,3.40
2019-06-01T15:17:30.903Z,2.40
2019-06-01T15:20:20.610Z,2.40
2019-06-01T15:23:09.606Z,2.57
2019-06-01T15:25:58.549Z,2.13
2019-06-01T15:28:47.318Z,2.20
2019-06-01T15:31:35.895Z,2.80
2019-06-01T15:34:24.770Z,2.60
2019-06-01T15:37:13.887Z,2.40
2019-06-01T15:40:03.718Z,2.20
2019-06-01T15:42:52.211Z,1.87
2019-06-01T15:45:43.410Z,2.10
2019-06-01T15:48:32.577Z,1.90
2019-06-01T15:51:21.402Z,2.27
2019-06-01T15:54:10.543Z,2.20
2019-06-01T15:57:00.608Z,1.97
2019-06-01T15:59:49.150Z,3.10
2019-06-01T16:02:37.994Z,5.23
2019-06-01T16:05:27.149Z,2.10
2019-06-01T16:08:16.938Z,2.73
2019-06-01T16:11:07.407Z,2.50
2019-06-01T16:13:55.855Z,4.33
2019-06-01T16:16:44.170Z,1.87
2019-06-01T16:19:32.278Z,2.13
2019-06-01T16:22:21.191Z,2.87
2019-06-01T16:25:10.470Z,2.20
2019-06-01T16:27:58.880Z,2.13
2019-06-01T16:30:47.387Z,1.90
2019-06-01T16:33:35.318Z,2.43
2019-06-01T16:36:24.871Z,1.90
2019-06-01T16:39:15.303Z,2.00
2019-06-01T16:42:04.270Z,2.97
2019-06-01T16:44:55.338Z,2.40
2019-06-01T16:47:44.928Z,2.63
2019-06-01T16:50:34.006Z,2.23
2019-06-01T16:53:23.009Z,1.93
2019-06-01T16:56:12.568Z,2.17
2019-06-01T16:59:02.325Z,2.10
2019-06-01T17:01:52.062Z,3.07
2019-06-01T17:04:42.482Z,4.10
2019-06-01T17:07:32.418Z,2.70
2019-06-01T17:10:26.204Z,3.77
2019-06-01T17:13:11.267Z,2.87
2019-06-01T17:16:00.938Z,2.87
2019-06-01T17:18:49.551Z,2.60
2019-06-01T17:21:38.070Z,3.03
2019-06-01T17:24:26.360Z,4.00
2019-06-01T17:27:15.206Z,3.50
2019-06-01T17:30:06.883Z,2.63
2019-06-01T17:32:53.711Z,2.10
2019-06-01T17:35:42.539Z,4.73
2019-06-01T17:38:32.574Z,4.43
2019-06-01T17:41:21.686Z,8.20
2019-06-01T17:44:09.906Z,4.47
2019-06-01T17:46:59.903Z,22.27
2019-06-01T17:49:49.895Z,26.30
2019-06-01T17:52:39.793Z,9.60
2019-06-01T17:55:30.871Z,20.63
2019-06-01T17:58:19.482Z,8.00
2019-06-01T18:01:09.809Z,10.83
2019-06-01T18:04:05.904Z,14.03
2019-06-01T18:06:55.444Z,4.33
2019-06-01T18:09:44.666Z,11.70
2019-06-01T18:12:34.219Z,6.80
2019-06-01T18:15:23.079Z,7.47
2019-06-01T18:18:12.819Z,8.50
2019-06-01T18:21:02.303Z,5.20
2019-06-01T18:23:52.401Z,4.43
2019-06-01T18:26:40.534Z,2.83
2019-06-01T18:29:28.587Z,4.27
2019-06-01T18:32:16.655Z,2.30
2019-06-01T18:35:07.118Z,6.40
2019-06-01T18:37:56.928Z,5.60
2019-06-01T18:40:48.311Z,5.70
2019-06-01T18:43:36.321Z,3.60
2019-06-01T18:46:25.591Z,3.70
2019-06-01T18:49:17.923Z,3.03
2019-06-01T18:52:04.327Z,2.40
2019-06-01T18:54:54.626Z,3.50
2019-06-01T18:57:45.454Z,2.70
2019-06-01T19:00:49.320Z,3.03
2019-06-01T19:03:38.190Z,3.10
2019-06-01T19:06:27.468Z,2.70
2019-06-01T19:09:16.991Z,3.33
2019-06-01T19:12:06.745Z,3.27
2019-06-01T19:14:56.608Z,3.00
2019-06-01T19:17:44.956Z,3.23
2019-06-01T19:20:33.544Z,2.90
2019-06-01T19:23:23.129Z,3.13
2019-06-01T19:26:13.807Z,3.20
2019-06-01T19:29:01.438Z,2.87
2019-06-01T19:31:50.858Z,3.30
2019-06-01T19:34:39.710Z,3.73
2019-06-01T19:37:28.922Z,3.40
2019-06-01T19:40:20.098Z,3.47
2019-06-01T19:43:09.866Z,2.87
2019-06-01T19:46:01.583Z,2.67
2019-06-01T19:48:50.608Z,3.70
2019-06-01T19:51:45.606Z,2.97
2019-06-01T19:54:31.036Z,3.63
2019-06-01T19:57:22.668Z,3.93
2019-06-01T20:00:16.531Z,3.60
2019-06-01T20:03:06.139Z,4.17
2019-06-01T20:06:01.040Z,4.83
2019-06-01T20:08:50.298Z,3.80
2019-06-01T20:11:39.375Z,4.90
2019-06-01T20:14:34.114Z,4.60
2019-06-01T20:17:25.912Z,4.20
2019-06-01T20:20:12.713Z,6.20
2019-06-01T20:23:01.206Z,4.50
2019-06-01T20:25:50.120Z,4.13
2019-06-01T20:28:38.499Z,5.10
2019-06-01T20:31:27.039Z,4.80
2019-06-01T20:34:15.847Z,4.67
2019-06-01T20:37:06.417Z,4.40
2019-06-01T20:39:56.474Z,4.90
2019-06-01T20:42:44.513Z,5.47
2019-06-01T20:45:44.014Z,5.23
2019-06-01T20:48:33.035Z,5.50
2019-06-01T20:51:27.440Z,4.90
2019-06-01T20:54:12.977Z,5.30
2019-06-01T20:57:02.450Z,5.10
2019-06-01T20:59:51.962Z,4.70
2019-06-01T21:02:49.127Z,5.30
2019-06-01T21:05:37.765Z,5.87
2019-06-01T21:08:27.217Z,5.60
2019-06-01T21:11:16.242Z,6.20
2019-06-01T21:14:04.683Z,6.13
2019-06-01T21:16:53.183Z,5.53
2019-06-01T21:19:41.925Z,6.47
2019-06-01T21:22:30.148Z,5.50
2019-06-01T21:25:18.934Z,5.60
2019-06-01T21:28:07.252Z,6.57
2019-06-01T21:30:55.212Z,6.80
2019-06-01T21:33:43.820Z,7.93
2019-06-01T21:36:32.647Z,5.80
2019-06-01T21:39:23.536Z,6.83
2019-06-01T21:42:11.923Z,6.27
2019-06-01T21:45:01.895Z,6.13
2019-06-01T21:47:51.126Z,6.70
2019-06-01T21:50:47.727Z,6.90
2019-06-01T21:53:37.455Z,6.83
2019-06-01T21:56:27.462Z,6.13
2019-06-01T21:59:16.512Z,5.80
2019-06-01T22:02:05.979Z,6.57
2019-06-01T22:04:55.008Z,6.63
2019-06-01T22:07:45.532Z,6.03
2019-06-01T22:10:35.326Z,6.90
2019-06-01T22:13:25.549Z,6.13
2019-06-01T22:16:13.497Z,5.87
2019-06-01T22:19:02.418Z,6.60
2019-06-01T22:21:51.690Z,6.27
2019-06-01T22:24:39.748Z,6.20
2019-06-01T22:27:28.545Z,7.10
2019-06-01T22:30:18.259Z,9.03
2019-06-01T22:33:07.619Z,8.10
2019-06-01T22:35:57.046Z,6.57
2019-06-01T22:38:52.096Z,7.90
2019-06-01T22:41:40.803Z,7.00
2019-06-01T22:44:30.726Z,6.53
2019-06-01T22:47:20.438Z,7.17
2019-06-01T22:50:09.753Z,6.70
2019-06-01T22:52:59.207Z,6.93
2019-06-01T22:55:48.757Z,6.90
2019-06-01T22:58:36.918Z,6.53
2019-06-01T23:01:26.825Z,8.80
2019-06-01T23:04:16.057Z,7.43
2019-06-01T23:07:05.338Z,7.17
2019-06-01T23:09:55.683Z,7.23
2019-06-01T23:12:44.534Z,7.63
2019-06-01T23:15:33.146Z,6.80
2019-06-01T23:18:21.768Z,7.40
2019-06-01T23:21:10.460Z,6.57
2019-06-01T23:23:59.089Z,6.57
2019-06-01T23:26:48.911Z,5.50
2019-06-01T23:29:37.046Z,7.30
2019-06-01T23:32:26.459Z,6.20
2019-06-01T23:35:14.502Z,6.33
2019-06-01T23:38:04.046Z,6.27
2019-06-01T23:40:53.666Z,7.90
2019-06-01T23:43:42.123Z,6.50
2019-06-01T23:46:33.462Z,6.47
2019-06-01T23:49:23.183Z,6.20
2019-06-01T23:52:11.163Z,6.20
2019-06-01T23:55:00.310Z,5.80
2019-06-01T23:57:48.778Z,6.30
